sensor_id;sensor_type;location;lat;lon;timestamp;pressure;altitude;pressure_sealevel;temperature;humidity
18533;BME280;9396;51.510;11.934;2023-12-22T00:01:43;98152.81;;;4.48;100.00
18533;BME280;9396;51.510;11.934;2023-12-22T00:04:10;98152.31;;;4.44;100.00
18533;BME280;9396;51.510;11.934;2023-12-22T00:06:37;98173.88;;;4.48;100.00
18533;BME280;9396;51.510;11.934;2023-12-22T00:09:04;98176.31;;;4.49;100.00
18533;BME280;9396;51.510;11.934;2023-12-22T00:11:31;98170.56;;;4.54;100.00
18533;BME280;9396;51.510;11.934;2023-12-22T00:13:58;98172.31;;;4.61;100.00
18533;BME280;9396;51.510;11.934;2023-12-22T00:16:24;98162.41;;;4.71;100.00
18533;BME280;9396;51.510;11.934;2023-12-22T00:18:51;98171.13;;;4.72;100.00
18533;BME280;9396;51.510;11.934;2023-12-22T00:21:19;98186.91;;;4.72;100.00
18533;BME280;9396;51.510;11.934;2023-12-22T00:23:46;98183.19;;;4.66;100.00
18533;BME280;9396;51.510;11.934;2023-12-22T00:26:14;98184.31;;;4.64;100.00
18533;BME280;9396;51.510;11.934;2023-12-22T00:28:41;98186.44;;;4.68;100.00
18533;BME280;9396;51.510;11.934;2023-12-22T00:31:08;98183.47;;;4.71;99.78
18533;BME280;9396;51.510;11.934;2023-12-22T00:33:34;98184.63;;;4.69;100.00
18533;BME280;9396;51.510;11.934;2023-12-22T00:36:01;98183.31;;;4.73;100.00
18533;BME280;9396;51.510;11.934;2023-12-22T00:38:28;98194.38;;;4.60;99.66
18533;BME280;9396;51.510;11.934;2023-12-22T00:40:54;98206.22;;;4.56;100.00
18533;BME280;9396;51.510;11.934;2023-12-22T00:43:23;98209.34;;;4.60;100.00
18533;BME280;9396;51.510;11.934;2023-12-22T00:45:49;98233.69;;;4.62;99.72
18533;BME280;9396;51.510;11.934;2023-12-22T00:48:16;98232.31;;;4.74;99.99
18533;BME280;9396;51.510;11.934;2023-12-22T00:50:43;98231.69;;;4.72;99.22
18533;BME280;9396;51.510;11.934;2023-12-22T00:53:10;98225.44;;;4.73;98.41
18533;BME280;9396;51.510;11.934;2023-12-22T00:55:36;98229.19;;;4.78;98.11
18533;BME280;9396;51.510;11.934;2023-12-22T00:58:03;98230.16;;;4.85;99.49
18533;BME280;9396;51.510;11.934;2023-12-22T01:00:31;98225.91;;;4.76;99.28
18533;BME280;9396;51.510;11.934;2023-12-22T01:02:57;98234.28;;;4.80;99.64
18533;BME280;9396;51.510;11.934;2023-12-22T01:05:24;98231.00;;;4.78;98.98
18533;BME280;9396;51.510;11.934;2023-12-22T01:07:51;98236.09;;;4.79;98.56
18533;BME280;9396;51.510;11.934;2023-12-22T01:10:17;98238.56;;;4.81;99.32
18533;BME280;9396;51.510;11.934;2023-12-22T01:12:44;98238.22;;;4.84;99.59
18533;BME280;9396;51.510;11.934;2023-12-22T01:15:11;98234.94;;;4.82;99.71
18533;BME280;9396;51.510;11.934;2023-12-22T01:17:38;98243.81;;;4.81;99.43
18533;BME280;9396;51.510;11.934;2023-12-22T01:20:05;98242.19;;;4.80;99.87
18533;BME280;9396;51.510;11.934;2023-12-22T01:22:32;98238.91;;;4.78;100.00
18533;BME280;9396;51.510;11.934;2023-12-22T01:25:03;98244.16;;;4.78;99.24
18533;BME280;9396;51.510;11.934;2023-12-22T01:27:30;98239.72;;;4.78;99.86
18533;BME280;9396;51.510;11.934;2023-12-22T01:29:57;98247.75;;;4.85;99.36
18533;BME280;9396;51.510;11.934;2023-12-22T01:32:23;98241.03;;;4.82;99.12
18533;BME280;9396;51.510;11.934;2023-12-22T01:34:51;98243.03;;;4.80;99.01
18533;BME280;9396;51.510;11.934;2023-12-22T01:37:18;98251.09;;;4.79;99.64
18533;BME280;9396;51.510;11.934;2023-12-22T01:39:44;98249.91;;;4.81;99.88
18533;BME280;9396;51.510;11.934;2023-12-22T01:42:11;98254.22;;;4.82;99.13
18533;BME280;9396;51.510;11.934;2023-12-22T01:44:38;98249.41;;;4.86;98.66
18533;BME280;9396;51.510;11.934;2023-12-22T01:47:04;98245.84;;;4.79;98.68
18533;BME280;9396;51.510;11.934;2023-12-22T01:49:31;98248.41;;;4.87;97.99
18533;BME280;9396;51.510;11.934;2023-12-22T01:51:59;98244.84;;;4.72;98.23
18533;BME280;9396;51.510;11.934;2023-12-22T01:54:26;98247.16;;;4.67;98.60
18533;BME280;9396;51.510;11.934;2023-12-22T01:56:54;98259.69;;;4.65;98.28
18533;BME280;9396;51.510;11.934;2023-12-22T01:59:21;98252.00;;;4.55;98.86
18533;BME280;9396;51.510;11.934;2023-12-22T02:01:48;98258.72;;;4.58;98.53
18533;BME280;9396;51.510;11.934;2023-12-22T02:04:15;98246.25;;;4.52;98.59
18533;BME280;9396;51.510;11.934;2023-12-22T02:06:42;98250.03;;;4.49;99.77
18533;BME280;9396;51.510;11.934;2023-12-22T02:09:10;98229.78;;;4.50;100.00
18533;BME280;9396;51.510;11.934;2023-12-22T02:11:37;98249.22;;;4.41;100.00
18533;BME280;9396;51.510;11.934;2023-12-22T02:14:05;98241.97;;;4.43;100.00
18533;BME280;9396;51.510;11.934;2023-12-22T02:16:42;98230.50;;;4.35;100.00
18533;BME280;9396;51.510;11.934;2023-12-22T02:19:21;98226.72;;;4.30;99.96
18533;BME280;9396;51.510;11.934;2023-12-22T02:22:00;98214.03;;;4.25;100.00
18533;BME280;9396;51.510;11.934;2023-12-22T02:24:28;98225.91;;;4.21;100.00
18533;BME280;9396;51.510;11.934;2023-12-22T02:26:59;98235.09;;;4.25;100.00
18533;BME280;9396;51.510;11.934;2023-12-22T02:29:31;98229.84;;;4.33;100.00
18533;BME280;9396;51.510;11.934;2023-12-22T02:32:02;98238.06;;;4.22;100.00
18533;BME280;9396;51.510;11.934;2023-12-22T02:34:35;98234.78;;;4.20;100.00
18533;BME280;9396;51.510;11.934;2023-12-22T02:37:04;98246.47;;;4.18;100.00
18533;BME280;9396;51.510;11.934;2023-12-22T02:39:33;98249.09;;;4.18;100.00
18533;BME280;9396;51.510;11.934;2023-12-22T02:42:00;98254.03;;;4.21;100.00
18533;BME280;9396;51.510;11.934;2023-12-22T02:44:27;98258.78;;;4.33;100.00
18533;BME280;9396;51.510;11.934;2023-12-22T02:46:53;98252.19;;;4.38;100.00
18533;BME280;9396;51.510;11.934;2023-12-22T02:49:20;98262.41;;;4.32;100.00
18533;BME280;9396;51.510;11.934;2023-12-22T02:51:47;98258.13;;;4.31;100.00
18533;BME280;9396;51.510;11.934;2023-12-22T02:54:13;98247.72;;;4.38;100.00
18533;BME280;9396;51.510;11.934;2023-12-22T02:56:41;98258.44;;;4.45;99.94
18533;BME280;9396;51.510;11.934;2023-12-22T02:59:09;98257.13;;;4.41;100.00
18533;BME280;9396;51.510;11.934;2023-12-22T03:01:35;98253.31;;;4.51;99.99
18533;BME280;9396;51.510;11.934;2023-12-22T03:04:02;98261.72;;;4.38;100.00
18533;BME280;9396;51.510;11.934;2023-12-22T03:06:29;98258.59;;;4.43;100.00
18533;BME280;9396;51.510;11.934;2023-12-22T03:08:56;98248.59;;;4.30;100.00
18533;BME280;9396;51.510;11.934;2023-12-22T03:11:22;98253.03;;;4.22;100.00
18533;BME280;9396;51.510;11.934;2023-12-22T03:13:50;98240.56;;;4.16;100.00
18533;BME280;9396;51.510;11.934;2023-12-22T03:16:17;98240.56;;;4.08;100.00
18533;BME280;9396;51.510;11.934;2023-12-22T03:18:43;98247.78;;;4.14;100.00
18533;BME280;9396;51.510;11.934;2023-12-22T03:21:16;98251.91;;;4.16;100.00
18533;BME280;9396;51.510;11.934;2023-12-22T03:23:43;98260.13;;;4.13;100.00
18533;BME280;9396;51.510;11.934;2023-12-22T03:26:09;98244.34;;;4.13;100.00
18533;BME280;9396;51.510;11.934;2023-12-22T03:28:36;98249.59;;;4.13;100.00
18533;BME280;9396;51.510;11.934;2023-12-22T03:31:04;98258.97;;;4.08;100.00
18533;BME280;9396;51.510;11.934;2023-12-22T03:33:32;98257.31;;;4.23;100.00
18533;BME280;9396;51.510;11.934;2023-12-22T03:35:58;98252.38;;;4.28;100.00
18533;BME280;9396;51.510;11.934;2023-12-22T03:38:25;98249.78;;;4.20;100.00
18533;BME280;9396;51.510;11.934;2023-12-22T03:40:52;98263.41;;;4.15;100.00
18533;BME280;9396;51.510;11.934;2023-12-22T03:43:18;98276.91;;;4.12;100.00
18533;BME280;9396;51.510;11.934;2023-12-22T03:45:45;98269.97;;;4.11;100.00
18533;BME280;9396;51.510;11.934;2023-12-22T03:48:13;98274.25;;;4.04;100.00
18533;BME280;9396;51.510;11.934;2023-12-22T03:50:39;98269.66;;;4.06;100.00
18533;BME280;9396;51.510;11.934;2023-12-22T03:53:06;98276.88;;;4.04;100.00
18533;BME280;9396;51.510;11.934;2023-12-22T03:55:32;98264.22;;;4.08;100.00
18533;BME280;9396;51.510;11.934;2023-12-22T03:57:59;98266.53;;;4.11;100.00
18533;BME280;9396;51.510;11.934;2023-12-22T04:00:26;98265.56;;;4.20;100.00
18533;BME280;9396;51.510;11.934;2023-12-22T04:02:52;98257.66;;;4.12;100.00
18533;BME280;9396;51.510;11.934;2023-12-22T04:05:20;98247.16;;;4.04;100.00
18533;BME280;9396;51.510;11.934;2023-12-22T04:07:47;98253.72;;;4.16;100.00
18533;BME280;9396;51.510;11.934;2023-12-22T04:10:16;98252.88;;;4.23;100.00
18533;BME280;9396;51.510;11.934;2023-12-22T04:12:42;98239.88;;;4.22;100.00
18533;BME280;9396;51.510;11.934;2023-12-22T04:15:09;98241.22;;;4.18;100.00
18533;BME280;9396;51.510;11.934;2023-12-22T04:17:36;98268.50;;;4.25;100.00
18533;BME280;9396;51.510;11.934;2023-12-22T04:20:03;98250.41;;;4.30;100.00
18533;BME280;9396;51.510;11.934;2023-12-22T04:22:30;98265.19;;;4.31;100.00
18533;BME280;9396;51.510;11.934;2023-12-22T04:24:57;98251.72;;;4.34;100.00
18533;BME280;9396;51.510;11.934;2023-12-22T04:27:23;98252.38;;;4.28;100.00
18533;BME280;9396;51.510;11.934;2023-12-22T04:29:50;98236.94;;;4.25;100.00
18533;BME280;9396;51.510;11.934;2023-12-22T04:32:17;98220.66;;;4.21;100.00
18533;BME280;9396;51.510;11.934;2023-12-22T04:34:43;98228.88;;;4.26;100.00
18533;BME280;9396;51.510;11.934;2023-12-22T04:37:10;98231.66;;;4.25;100.00
18533;BME280;9396;51.510;11.934;2023-12-22T04:39:38;98235.25;;;4.24;100.00
18533;BME280;9396;51.510;11.934;2023-12-22T04:42:04;98233.78;;;4.29;99.97
18533;BME280;9396;51.510;11.934;2023-12-22T04:44:31;98247.59;;;4.31;99.56
18533;BME280;9396;51.510;11.934;2023-12-22T04:46:57;98249.75;;;4.36;98.77
18533;BME280;9396;51.510;11.934;2023-12-22T04:49:24;98244.34;;;4.21;99.10
18533;BME280;9396;51.510;11.934;2023-12-22T04:51:51;98241.34;;;4.24;100.00
18533;BME280;9396;51.510;11.934;2023-12-22T04:54:17;98231.31;;;4.28;100.00
18533;BME280;9396;51.510;11.934;2023-12-22T04:56:45;98241.19;;;4.26;100.00
18533;BME280;9396;51.510;11.934;2023-12-22T04:59:12;98247.63;;;4.15;100.00
18533;BME280;9396;51.510;11.934;2023-12-22T05:01:38;98256.34;;;4.08;100.00
18533;BME280;9396;51.510;11.934;2023-12-22T05:04:05;98239.41;;;4.02;100.00
18533;BME280;9396;51.510;11.934;2023-12-22T05:06:31;98238.13;;;3.98;100.00
18533;BME280;9396;51.510;11.934;2023-12-22T05:08:59;98231.84;;;3.99;100.00
18533;BME280;9396;51.510;11.934;2023-12-22T05:11:25;98246.00;;;3.98;100.00
18533;BME280;9396;51.510;11.934;2023-12-22T05:13:53;98256.84;;;4.03;100.00
18533;BME280;9396;51.510;11.934;2023-12-22T05:16:20;98249.09;;;4.10;100.00
18533;BME280;9396;51.510;11.934;2023-12-22T05:18:46;98247.28;;;4.02;100.00
18533;BME280;9396;51.510;11.934;2023-12-22T05:21:13;98242.03;;;4.10;99.71
18533;BME280;9396;51.510;11.934;2023-12-22T05:23:40;98255.50;;;4.15;98.60
18533;BME280;9396;51.510;11.934;2023-12-22T05:26:07;98241.03;;;4.11;97.69
18533;BME280;9396;51.510;11.934;2023-12-22T05:28:33;98252.06;;;4.15;96.01
18533;BME280;9396;51.510;11.934;2023-12-22T05:31:01;98266.69;;;4.17;95.95
18533;BME280;9396;51.510;11.934;2023-12-22T05:33:28;98261.44;;;4.17;95.83
18533;BME280;9396;51.510;11.934;2023-12-22T05:35:55;98251.56;;;4.19;97.36
18533;BME280;9396;51.510;11.934;2023-12-22T05:38:21;98262.06;;;4.35;97.77
18533;BME280;9396;51.510;11.934;2023-12-22T05:40:48;98258.47;;;4.28;98.54
18533;BME280;9396;51.510;11.934;2023-12-22T05:43:15;98263.06;;;4.18;99.24
18533;BME280;9396;51.510;11.934;2023-12-22T05:45:41;98265.03;;;4.24;100.00
18533;BME280;9396;51.510;11.934;2023-12-22T05:48:09;98258.47;;;4.28;100.00
18533;BME280;9396;51.510;11.934;2023-12-22T05:50:36;98239.38;;;4.26;100.00
18533;BME280;9396;51.510;11.934;2023-12-22T05:53:03;98245.13;;;4.22;99.98
18533;BME280;9396;51.510;11.934;2023-12-22T05:55:29;98238.06;;;4.22;99.70
18533;BME280;9396;51.510;11.934;2023-12-22T05:57:56;98248.91;;;4.27;100.00
18533;BME280;9396;51.510;11.934;2023-12-22T06:00:23;98251.22;;;4.30;100.00
18533;BME280;9396;51.510;11.934;2023-12-22T06:02:49;98258.63;;;4.19;100.00
18533;BME280;9396;51.510;11.934;2023-12-22T06:05:17;98272.94;;;4.24;100.00
18533;BME280;9396;51.510;11.934;2023-12-22T06:07:44;98282.63;;;4.24;100.00
18533;BME280;9396;51.510;11.934;2023-12-22T06:10:10;98287.41;;;4.20;100.00
18533;BME280;9396;51.510;11.934;2023-12-22T06:12:37;98290.69;;;4.22;100.00
18533;BME280;9396;51.510;11.934;2023-12-22T06:15:05;98294.16;;;4.23;100.00
18533;BME280;9396;51.510;11.934;2023-12-22T06:17:33;98299.06;;;4.10;100.00
18533;BME280;9396;51.510;11.934;2023-12-22T06:19:59;98292.50;;;3.98;100.00
18533;BME280;9396;51.510;11.934;2023-12-22T06:22:27;98289.22;;;3.96;100.00
18533;BME280;9396;51.510;11.934;2023-12-22T06:24:54;98307.78;;;3.94;100.00
18533;BME280;9396;51.510;11.934;2023-12-22T06:27:20;98318.81;;;3.98;100.00
18533;BME280;9396;51.510;11.934;2023-12-22T06:29:47;98307.13;;;3.76;100.00
18533;BME280;9396;51.510;11.934;2023-12-22T06:32:14;98307.75;;;3.62;100.00
18533;BME280;9396;51.510;11.934;2023-12-22T06:34:42;98307.75;;;3.54;100.00
18533;BME280;9396;51.510;11.934;2023-12-22T06:37:09;98306.75;;;3.55;100.00
18533;BME280;9396;51.510;11.934;2023-12-22T06:39:38;98304.47;;;3.60;100.00
18533;BME280;9396;51.510;11.934;2023-12-22T06:42:05;98298.88;;;3.55;100.00
18533;BME280;9396;51.510;11.934;2023-12-22T06:44:36;98314.59;;;3.47;100.00
18533;BME280;9396;51.510;11.934;2023-12-22T06:47:03;98337.31;;;3.56;100.00
18533;BME280;9396;51.510;11.934;2023-12-22T06:49:30;98317.28;;;3.55;100.00
18533;BME280;9396;51.510;11.934;2023-12-22T06:51:56;98316.13;;;3.58;100.00
18533;BME280;9396;51.510;11.934;2023-12-22T06:54:23;98323.03;;;3.59;100.00
18533;BME280;9396;51.510;11.934;2023-12-22T06:56:51;98303.63;;;3.60;100.00
18533;BME280;9396;51.510;11.934;2023-12-22T06:59:17;98278.50;;;3.57;100.00
18533;BME280;9396;51.510;11.934;2023-12-22T07:01:44;98315.16;;;3.59;100.00
18533;BME280;9396;51.510;11.934;2023-12-22T07:04:11;98316.63;;;3.61;100.00
18533;BME280;9396;51.510;11.934;2023-12-22T07:06:37;98318.78;;;3.74;100.00
18533;BME280;9396;51.510;11.934;2023-12-22T07:09:32;98342.59;;;3.72;100.00
18533;BME280;9396;51.510;11.934;2023-12-22T07:12:00;98348.69;;;3.65;100.00
18533;BME280;9396;51.510;11.934;2023-12-22T07:14:29;98340.94;;;3.63;100.00
18533;BME280;9396;51.510;11.934;2023-12-22T07:16:55;98325.31;;;3.62;100.00
18533;BME280;9396;51.510;11.934;2023-12-22T07:19:23;98348.69;;;3.65;100.00
18533;BME280;9396;51.510;11.934;2023-12-22T07:21:50;98355.06;;;3.70;100.00
18533;BME280;9396;51.510;11.934;2023-12-22T07:24:16;98356.72;;;3.79;100.00
18533;BME280;9396;51.510;11.934;2023-12-22T07:26:44;98351.81;;;3.76;100.00
18533;BME280;9396;51.510;11.934;2023-12-22T07:29:12;98353.31;;;3.87;100.00
18533;BME280;9396;51.510;11.934;2023-12-22T07:31:39;98351.69;;;3.86;100.00
18533;BME280;9396;51.510;11.934;2023-12-22T07:34:05;98347.88;;;3.80;100.00
18533;BME280;9396;51.510;11.934;2023-12-22T07:36:32;98363.31;;;3.83;100.00
18533;BME280;9396;51.510;11.934;2023-12-22T07:38:58;98368.44;;;3.93;100.00
18533;BME280;9396;51.510;11.934;2023-12-22T07:41:26;98362.72;;;4.05;100.00
18533;BME280;9396;51.510;11.934;2023-12-22T07:43:52;98370.13;;;4.18;100.00
18533;BME280;9396;51.510;11.934;2023-12-22T07:46:20;98404.66;;;4.23;97.78
18533;BME280;9396;51.510;11.934;2023-12-22T07:48:47;98398.59;;;4.30;96.36
18533;BME280;9396;51.510;11.934;2023-12-22T07:51:14;98427.81;;;4.27;97.33
18533;BME280;9396;51.510;11.934;2023-12-22T07:53:40;98411.53;;;4.24;98.67
18533;BME280;9396;51.510;11.934;2023-12-22T07:56:07;98408.09;;;4.07;100.00
18533;BME280;9396;51.510;11.934;2023-12-22T07:58:35;98438.78;;;3.91;100.00
18533;BME280;9396;51.510;11.934;2023-12-22T08:01:03;98410.31;;;3.78;100.00
18533;BME280;9396;51.510;11.934;2023-12-22T08:03:32;98418.03;;;3.72;100.00
18533;BME280;9396;51.510;11.934;2023-12-22T08:05:58;98419.59;;;3.57;100.00
18533;BME280;9396;51.510;11.934;2023-12-22T08:08:25;98416.00;;;3.58;100.00
18533;BME280;9396;51.510;11.934;2023-12-22T08:10:52;98416.50;;;3.61;100.00
18533;BME280;9396;51.510;11.934;2023-12-22T08:13:18;98434.94;;;3.69;100.00
18533;BME280;9396;51.510;11.934;2023-12-22T08:15:45;98449.56;;;3.72;100.00
18533;BME280;9396;51.510;11.934;2023-12-22T08:18:11;98444.84;;;3.83;100.00
18533;BME280;9396;51.510;11.934;2023-12-22T08:20:39;98449.47;;;3.89;100.00
18533;BME280;9396;51.510;11.934;2023-12-22T08:23:06;98438.66;;;4.00;100.00
18533;BME280;9396;51.510;11.934;2023-12-22T08:25:33;98439.63;;;3.99;99.32
18533;BME280;9396;51.510;11.934;2023-12-22T08:27:59;98442.75;;;4.03;98.90
18533;BME280;9396;51.510;11.934;2023-12-22T08:30:26;98448.84;;;4.03;98.74
18533;BME280;9396;51.510;11.934;2023-12-22T08:32:53;98430.78;;;4.08;98.29
18533;BME280;9396;51.510;11.934;2023-12-22T08:35:20;98451.19;;;4.14;98.40
18533;BME280;9396;51.510;11.934;2023-12-22T08:37:47;98437.34;;;4.20;98.30
18533;BME280;9396;51.510;11.934;2023-12-22T08:40:14;98450.22;;;4.23;98.49
18533;BME280;9396;51.510;11.934;2023-12-22T08:42:41;98461.50;;;4.08;98.56
18533;BME280;9396;51.510;11.934;2023-12-22T08:45:08;98493.88;;;4.00;99.66
18533;BME280;9396;51.510;11.934;2023-12-22T08:47:35;98485.63;;;3.87;100.00
18533;BME280;9396;51.510;11.934;2023-12-22T08:50:01;98480.09;;;3.65;100.00
18533;BME280;9396;51.510;11.934;2023-12-22T08:52:29;98479.00;;;3.42;100.00
18533;BME280;9396;51.510;11.934;2023-12-22T08:54:57;98511.31;;;3.34;100.00
18533;BME280;9396;51.510;11.934;2023-12-22T08:57:24;98473.03;;;3.32;100.00
18533;BME280;9396;51.510;11.934;2023-12-22T08:59:51;98491.81;;;3.19;100.00
18533;BME280;9396;51.510;11.934;2023-12-22T09:02:17;98508.56;;;3.18;100.00
18533;BME280;9396;51.510;11.934;2023-12-22T09:04:44;98500.94;;;3.07;100.00
18533;BME280;9396;51.510;11.934;2023-12-22T09:07:10;98514.22;;;3.05;100.00
18533;BME280;9396;51.510;11.934;2023-12-22T09:09:37;98526.22;;;3.08;100.00
18533;BME280;9396;51.510;11.934;2023-12-22T09:12:05;98530.19;;;3.12;100.00
18533;BME280;9396;51.510;11.934;2023-12-22T09:14:32;98544.66;;;3.16;100.00
18533;BME280;9396;51.510;11.934;2023-12-22T09:16:58;98578.88;;;3.24;100.00
18533;BME280;9396;51.510;11.934;2023-12-22T09:19:25;98577.59;;;3.28;100.00
18533;BME280;9396;51.510;11.934;2023-12-22T09:21:52;98569.19;;;3.24;100.00
18533;BME280;9396;51.510;11.934;2023-12-22T09:24:19;98592.84;;;3.24;100.00
18533;BME280;9396;51.510;11.934;2023-12-22T09:26:46;98574.03;;;3.11;100.00
18533;BME280;9396;51.510;11.934;2023-12-22T09:29:14;98594.28;;;3.01;100.00
18533;BME280;9396;51.510;11.934;2023-12-22T09:31:41;98604.72;;;2.93;100.00
18533;BME280;9396;51.510;11.934;2023-12-22T09:34:07;98605.38;;;2.78;100.00
18533;BME280;9396;51.510;11.934;2023-12-22T09:36:34;98636.88;;;2.78;100.00
18533;BME280;9396;51.510;11.934;2023-12-22T09:39:00;98607.03;;;2.79;100.00
18533;BME280;9396;51.510;11.934;2023-12-22T09:41:28;98600.13;;;2.78;100.00
18533;BME280;9396;51.510;11.934;2023-12-22T09:43:56;98610.19;;;3.00;100.00
18533;BME280;9396;51.510;11.934;2023-12-22T09:46:25;98618.06;;;3.00;100.00
18533;BME280;9396;51.510;11.934;2023-12-22T09:48:53;98597.28;;;3.06;100.00
18533;BME280;9396;51.510;11.934;2023-12-22T09:51:21;98574.78;;;3.04;100.00
18533;BME280;9396;51.510;11.934;2023-12-22T09:53:48;98573.63;;;3.06;100.00
18533;BME280;9396;51.510;11.934;2023-12-22T09:56:17;98600.16;;;2.95;100.00
18533;BME280;9396;51.510;11.934;2023-12-22T09:58:45;98574.47;;;3.07;100.00
18533;BME280;9396;51.510;11.934;2023-12-22T10:01:12;98575.50;;;3.14;100.00
18533;BME280;9396;51.510;11.934;2023-12-22T10:03:42;98571.28;;;3.21;100.00
18533;BME280;9396;51.510;11.934;2023-12-22T10:06:09;98571.25;;;3.13;100.00
18533;BME280;9396;51.510;11.934;2023-12-22T10:08:36;98571.69;;;3.08;100.00
18533;BME280;9396;51.510;11.934;2023-12-22T10:11:04;98573.03;;;3.12;100.00
18533;BME280;9396;51.510;11.934;2023-12-22T10:13:36;98565.13;;;3.30;100.00
18533;BME280;9396;51.510;11.934;2023-12-22T10:16:04;98562.28;;;3.49;100.00
18533;BME280;9396;51.510;11.934;2023-12-22T10:18:32;98552.38;;;3.61;100.00
18533;BME280;9396;51.510;11.934;2023-12-22T10:21:00;98549.16;;;3.75;100.00
18533;BME280;9396;51.510;11.934;2023-12-22T10:23:27;98565.78;;;3.83;100.00
18533;BME280;9396;51.510;11.934;2023-12-22T10:25:54;98560.22;;;3.86;100.00
18533;BME280;9396;51.510;11.934;2023-12-22T10:28:23;98555.59;;;3.80;100.00
18533;BME280;9396;51.510;11.934;2023-12-22T10:30:52;98559.94;;;3.97;100.00
18533;BME280;9396;51.510;11.934;2023-12-22T10:33:21;98555.75;;;4.12;100.00
18533;BME280;9396;51.510;11.934;2023-12-22T10:35:47;98541.19;;;4.34;100.00
18533;BME280;9396;51.510;11.934;2023-12-22T10:38:19;98542.72;;;4.61;100.00
18533;BME280;9396;51.510;11.934;2023-12-22T10:40:45;98520.19;;;4.74;100.00
18533;BME280;9396;51.510;11.934;2023-12-22T10:43:12;98522.66;;;4.84;100.00
18533;BME280;9396;51.510;11.934;2023-12-22T10:45:40;98518.69;;;4.88;100.00
18533;BME280;9396;51.510;11.934;2023-12-22T10:48:07;98513.63;;;4.94;100.00
18533;BME280;9396;51.510;11.934;2023-12-22T10:50:33;98512.44;;;4.97;100.00
18533;BME280;9396;51.510;11.934;2023-12-22T10:53:00;98502.25;;;5.02;100.00
18533;BME280;9396;51.510;11.934;2023-12-22T10:55:28;98506.84;;;5.08;100.00
18533;BME280;9396;51.510;11.934;2023-12-22T10:57:55;98500.75;;;5.15;100.00
18533;BME280;9396;51.510;11.934;2023-12-22T11:00:22;98514.41;;;5.27;100.00
18533;BME280;9396;51.510;11.934;2023-12-22T11:02:55;98510.75;;;5.36;100.00
18533;BME280;9396;51.510;11.934;2023-12-22T11:05:25;98502.50;;;5.47;100.00
18533;BME280;9396;51.510;11.934;2023-12-22T11:07:55;98497.84;;;5.65;99.59
18533;BME280;9396;51.510;11.934;2023-12-22T11:10:23;98485.63;;;5.80;96.98
18533;BME280;9396;51.510;11.934;2023-12-22T11:12:51;98502.38;;;5.95;95.35
18533;BME280;9396;51.510;11.934;2023-12-22T11:15:19;98496.72;;;6.06;95.54
18533;BME280;9396;51.510;11.934;2023-12-22T11:17:48;98475.56;;;6.14;96.02
18533;BME280;9396;51.510;11.934;2023-12-22T11:20:16;98467.34;;;6.09;93.97
18533;BME280;9396;51.510;11.934;2023-12-22T11:22:44;98474.91;;;6.12;94.05
18533;BME280;9396;51.510;11.934;2023-12-22T11:25:12;98483.19;;;6.09;94.21
18533;BME280;9396;51.510;11.934;2023-12-22T11:27:41;98483.84;;;6.11;95.84
18533;BME280;9396;51.510;11.934;2023-12-22T11:30:11;98475.56;;;6.14;95.13
18533;BME280;9396;51.510;11.934;2023-12-22T11:32:39;98479.25;;;6.05;94.56
18533;BME280;9396;51.510;11.934;2023-12-22T11:35:06;98470.53;;;5.97;94.52
18533;BME280;9396;51.510;11.934;2023-12-22T11:37:35;98465.28;;;5.97;93.97
18533;BME280;9396;51.510;11.934;2023-12-22T11:40:03;98455.91;;;5.94;94.27
18533;BME280;9396;51.510;11.934;2023-12-22T11:42:34;98446.94;;;6.03;94.62
18533;BME280;9396;51.510;11.934;2023-12-22T11:45:02;98448.56;;;6.04;92.96
18533;BME280;9396;51.510;11.934;2023-12-22T11:47:30;98437.38;;;6.02;94.70
18533;BME280;9396;51.510;11.934;2023-12-22T11:49:57;98434.78;;;5.94;94.79
18533;BME280;9396;51.510;11.934;2023-12-22T11:52:27;98430.38;;;5.87;95.33
18533;BME280;9396;51.510;11.934;2023-12-22T11:54:55;98435.47;;;5.88;95.64
18533;BME280;9396;51.510;11.934;2023-12-22T11:57:32;98451.59;;;5.93;96.48
18533;BME280;9396;51.510;11.934;2023-12-22T12:00:01;98456.59;;;5.80;95.88
18533;BME280;9396;51.510;11.934;2023-12-22T12:02:32;98456.25;;;5.75;97.34
18533;BME280;9396;51.510;11.934;2023-12-22T12:04:59;98453.31;;;5.70;96.98
18533;BME280;9396;51.510;11.934;2023-12-22T12:07:39;98450.69;;;5.70;97.69
18533;BME280;9396;51.510;11.934;2023-12-22T12:10:07;98447.44;;;5.60;98.99
18533;BME280;9396;51.510;11.934;2023-12-22T12:12:34;98451.03;;;5.59;100.00
18533;BME280;9396;51.510;11.934;2023-12-22T12:15:07;98443.03;;;5.44;100.00
18533;BME280;9396;51.510;11.934;2023-12-22T12:17:40;98440.91;;;5.48;100.00
18533;BME280;9396;51.510;11.934;2023-12-22T12:20:08;98440.91;;;5.40;100.00
18533;BME280;9396;51.510;11.934;2023-12-22T12:22:36;98449.16;;;5.37;100.00
18533;BME280;9396;51.510;11.934;2023-12-22T12:25:07;98430.41;;;5.24;100.00
18533;BME280;9396;51.510;11.934;2023-12-22T12:27:35;98432.06;;;5.17;100.00
18533;BME280;9396;51.510;11.934;2023-12-22T12:30:11;98433.06;;;5.16;100.00
18533;BME280;9396;51.510;11.934;2023-12-22T12:32:42;98418.22;;;5.23;100.00
18533;BME280;9396;51.510;11.934;2023-12-22T12:35:09;98419.06;;;5.15;100.00
18533;BME280;9396;51.510;11.934;2023-12-22T12:37:36;98439.94;;;5.33;100.00
18533;BME280;9396;51.510;11.934;2023-12-22T12:40:07;98440.13;;;5.23;100.00
18533;BME280;9396;51.510;11.934;2023-12-22T12:42:35;98451.50;;;5.24;100.00
18533;BME280;9396;51.510;11.934;2023-12-22T12:45:03;98455.41;;;5.36;100.00
18533;BME280;9396;51.510;11.934;2023-12-22T12:47:30;98464.16;;;5.36;100.00
18533;BME280;9396;51.510;11.934;2023-12-22T12:49:58;98475.34;;;5.30;100.00
18533;BME280;9396;51.510;11.934;2023-12-22T12:52:25;98477.84;;;5.24;100.00
18533;BME280;9396;51.510;11.934;2023-12-22T12:54:52;98485.75;;;5.08;100.00
18533;BME280;9396;51.510;11.934;2023-12-22T12:57:19;98478.84;;;4.99;100.00
18533;BME280;9396;51.510;11.934;2023-12-22T12:59:46;98479.06;;;4.89;100.00
18533;BME280;9396;51.510;11.934;2023-12-22T13:02:15;98467.03;;;4.87;100.00
18533;BME280;9396;51.510;11.934;2023-12-22T13:04:41;98457.78;;;4.83;100.00